sensor_id;sensor_type;location;lat;lon;timestamp;P1;durP1;ratioP1;P2;durP2;ratioP2
69280;SDS011;56392;51.082;17.080;2023-10-19T00:01:13;25.75;;;11.45;;
69280;SDS011;56392;51.082;17.080;2023-10-19T00:06:39;28.15;;;12.10;;
69280;SDS011;56392;51.082;17.080;2023-10-19T00:12:03;29.53;;;12.87;;
69280;SDS011;56392;51.082;17.080;2023-10-19T00:17:29;27.33;;;12.23;;
69280;SDS011;56392;51.082;17.080;2023-10-19T00:22:55;28.02;;;11.82;;
69280;SDS011;56392;51.082;17.080;2023-10-19T00:28:19;27.90;;;12.03;;
69280;SDS011;56392;51.082;17.080;2023-10-19T00:33:43;27.45;;;12.52;;
69280;SDS011;56392;51.082;17.080;2023-10-19T00:39:08;27.10;;;11.65;;
69280;SDS011;56392;51.082;17.080;2023-10-19T00:44:42;29.77;;;12.23;;
69280;SDS011;56392;51.082;17.080;2023-10-19T00:50:12;32.60;;;12.47;;
69280;SDS011;56392;51.082;17.080;2023-10-19T00:55:39;26.75;;;11.55;;
69280;SDS011;56392;51.082;17.080;2023-10-19T01:01:03;27.25;;;11.85;;
69280;SDS011;56392;51.082;17.080;2023-10-19T01:06:28;27.93;;;11.73;;
69280;SDS011;56392;51.082;17.080;2023-10-19T01:11:56;30.30;;;11.32;;
69280;SDS011;56392;51.082;17.080;2023-10-19T01:17:23;28.85;;;12.90;;
69280;SDS011;56392;51.082;17.080;2023-10-19T01:22:50;30.67;;;13.03;;
69280;SDS011;56392;51.082;17.080;2023-10-19T01:28:28;28.40;;;12.88;;
69280;SDS011;56392;51.082;17.080;2023-10-19T01:34:03;26.00;;;11.63;;
69280;SDS011;56392;51.082;17.080;2023-10-19T01:39:29;25.20;;;11.40;;
69280;SDS011;56392;51.082;17.080;2023-10-19T01:44:53;28.07;;;12.20;;
69280;SDS011;56392;51.082;17.080;2023-10-19T01:50:16;25.30;;;11.70;;
69280;SDS011;56392;51.082;17.080;2023-10-19T01:55:43;27.00;;;11.13;;
69280;SDS011;56392;51.082;17.080;2023-10-19T02:01:09;31.13;;;12.20;;
69280;SDS011;56392;51.082;17.080;2023-10-19T02:06:41;30.92;;;13.20;;
69280;SDS011;56392;51.082;17.080;2023-10-19T02:12:08;28.83;;;12.77;;
69280;SDS011;56392;51.082;17.080;2023-10-19T02:17:31;30.30;;;13.07;;
69280;SDS011;56392;51.082;17.080;2023-10-19T02:22:55;29.60;;;12.65;;
69280;SDS011;56392;51.082;17.080;2023-10-19T02:28:22;25.77;;;11.43;;
69280;SDS011;56392;51.082;17.080;2023-10-19T02:33:53;25.87;;;11.80;;
69280;SDS011;56392;51.082;17.080;2023-10-19T02:39:21;34.40;;;15.33;;
69280;SDS011;56392;51.082;17.080;2023-10-19T02:44:50;31.60;;;13.63;;
69280;SDS011;56392;51.082;17.080;2023-10-19T02:50:13;30.70;;;13.85;;
69280;SDS011;56392;51.082;17.080;2023-10-19T02:55:38;31.97;;;13.33;;
69280;SDS011;56392;51.082;17.080;2023-10-19T03:01:08;30.48;;;13.20;;
69280;SDS011;56392;51.082;17.080;2023-10-19T03:06:35;31.55;;;13.57;;
69280;SDS011;56392;51.082;17.080;2023-10-19T03:11:58;34.40;;;15.80;;
69280;SDS011;56392;51.082;17.080;2023-10-19T03:17:27;33.88;;;14.75;;
69280;SDS011;56392;51.082;17.080;2023-10-19T03:22:51;35.67;;;14.60;;
69280;SDS011;56392;51.082;17.080;2023-10-19T03:28:14;33.73;;;15.33;;
69280;SDS011;56392;51.082;17.080;2023-10-19T03:33:40;32.73;;;14.63;;
69280;SDS011;56392;51.082;17.080;2023-10-19T03:39:05;32.97;;;14.73;;
69280;SDS011;56392;51.082;17.080;2023-10-19T03:44:33;37.60;;;15.63;;
69280;SDS011;56392;51.082;17.080;2023-10-19T03:50:07;35.20;;;16.53;;
69280;SDS011;56392;51.082;17.080;2023-10-19T03:55:36;34.58;;;16.55;;
69280;SDS011;56392;51.082;17.080;2023-10-19T04:01:00;36.80;;;15.10;;
69280;SDS011;56392;51.082;17.080;2023-10-19T04:06:27;35.20;;;16.27;;
69280;SDS011;56392;51.082;17.080;2023-10-19T04:11:50;37.67;;;17.00;;
69280;SDS011;56392;51.082;17.080;2023-10-19T04:17:14;39.83;;;16.08;;
69280;SDS011;56392;51.082;17.080;2023-10-19T04:22:40;36.90;;;15.43;;
69280;SDS011;56392;51.082;17.080;2023-10-19T04:28:06;32.37;;;15.43;;
69280;SDS011;56392;51.082;17.080;2023-10-19T04:33:30;36.15;;;16.73;;
69280;SDS011;56392;51.082;17.080;2023-10-19T04:38:55;38.63;;;17.50;;
69280;SDS011;56392;51.082;17.080;2023-10-19T04:44:18;40.00;;;17.70;;
69280;SDS011;56392;51.082;17.080;2023-10-19T04:49:41;42.55;;;17.55;;
69280;SDS011;56392;51.082;17.080;2023-10-19T04:55:08;33.38;;;15.07;;
69280;SDS011;56392;51.082;17.080;2023-10-19T05:00:31;38.17;;;17.07;;
69280;SDS011;56392;51.082;17.080;2023-10-19T05:05:55;34.08;;;16.92;;
69280;SDS011;56392;51.082;17.080;2023-10-19T05:11:20;38.28;;;17.45;;
69280;SDS011;56392;51.082;17.080;2023-10-19T05:16:43;33.83;;;16.43;;
69280;SDS011;56392;51.082;17.080;2023-10-19T05:22:07;38.67;;;17.77;;
69280;SDS011;56392;51.082;17.080;2023-10-19T05:27:32;38.08;;;15.88;;
69280;SDS011;56392;51.082;17.080;2023-10-19T05:32:56;33.80;;;16.30;;
69280;SDS011;56392;51.082;17.080;2023-10-19T05:38:19;39.37;;;16.00;;
69280;SDS011;56392;51.082;17.080;2023-10-19T05:43:46;38.10;;;17.13;;
69280;SDS011;56392;51.082;17.080;2023-10-19T05:49:10;33.72;;;15.45;;
69280;SDS011;56392;51.082;17.080;2023-10-19T05:54:34;41.97;;;17.63;;
69280;SDS011;56392;51.082;17.080;2023-10-19T06:00:00;36.08;;;16.60;;
69280;SDS011;56392;51.082;17.080;2023-10-19T06:05:26;36.22;;;16.52;;
69280;SDS011;56392;51.082;17.080;2023-10-19T06:10:51;37.00;;;17.30;;
69280;SDS011;56392;51.082;17.080;2023-10-19T06:16:17;38.63;;;18.23;;
69280;SDS011;56392;51.082;17.080;2023-10-19T06:21:40;32.45;;;15.30;;
69280;SDS011;56392;51.082;17.080;2023-10-19T06:27:05;36.10;;;15.80;;
69280;SDS011;56392;51.082;17.080;2023-10-19T06:32:29;31.47;;;14.30;;
69280;SDS011;56392;51.082;17.080;2023-10-19T06:37:54;35.58;;;14.65;;
69280;SDS011;56392;51.082;17.080;2023-10-19T06:43:19;38.42;;;15.30;;
69280;SDS011;56392;51.082;17.080;2023-10-19T06:48:46;31.37;;;15.37;;
69280;SDS011;56392;51.082;17.080;2023-10-19T06:54:09;33.75;;;15.70;;
69280;SDS011;56392;51.082;17.080;2023-10-19T06:59:35;35.22;;;15.40;;
69280;SDS011;56392;51.082;17.080;2023-10-19T07:05:00;38.13;;;17.33;;
69280;SDS011;56392;51.082;17.080;2023-10-19T07:10:24;35.83;;;16.73;;
69280;SDS011;56392;51.082;17.080;2023-10-19T07:15:49;37.17;;;17.08;;
69280;SDS011;56392;51.082;17.080;2023-10-19T07:21:14;35.28;;;17.77;;
69280;SDS011;56392;51.082;17.080;2023-10-19T07:26:38;35.87;;;16.37;;
69280;SDS011;56392;51.082;17.080;2023-10-19T07:32:13;33.55;;;16.50;;
69280;SDS011;56392;51.082;17.080;2023-10-19T07:37:39;36.97;;;17.38;;
69280;SDS011;56392;51.082;17.080;2023-10-19T07:43:05;40.63;;;17.47;;
69280;SDS011;56392;51.082;17.080;2023-10-19T07:48:29;34.97;;;18.00;;
69280;SDS011;56392;51.082;17.080;2023-10-19T07:53:55;34.33;;;16.02;;
69280;SDS011;56392;51.082;17.080;2023-10-19T07:59:18;34.23;;;16.13;;
69280;SDS011;56392;51.082;17.080;2023-10-19T08:04:42;30.70;;;14.73;;
69280;SDS011;56392;51.082;17.080;2023-10-19T08:10:07;37.53;;;17.58;;
69280;SDS011;56392;51.082;17.080;2023-10-19T08:15:33;33.80;;;16.38;;
69280;SDS011;56392;51.082;17.080;2023-10-19T08:20:56;35.63;;;17.53;;
69280;SDS011;56392;51.082;17.080;2023-10-19T08:26:21;38.22;;;17.13;;
69280;SDS011;56392;51.082;17.080;2023-10-19T08:31:44;39.40;;;17.10;;
69280;SDS011;56392;51.082;17.080;2023-10-19T08:37:07;33.57;;;16.50;;
69280;SDS011;56392;51.082;17.080;2023-10-19T08:42:32;35.55;;;17.83;;
69280;SDS011;56392;51.082;17.080;2023-10-19T08:47:57;34.08;;;17.13;;
69280;SDS011;56392;51.082;17.080;2023-10-19T08:53:22;34.80;;;16.53;;
69280;SDS011;56392;51.082;17.080;2023-10-19T08:58:48;37.03;;;17.63;;
69280;SDS011;56392;51.082;17.080;2023-10-19T09:04:13;36.50;;;17.45;;
69280;SDS011;56392;51.082;17.080;2023-10-19T09:09:37;38.38;;;17.27;;
69280;SDS011;56392;51.082;17.080;2023-10-19T09:15:04;35.47;;;16.43;;
69280;SDS011;56392;51.082;17.080;2023-10-19T09:20:28;34.22;;;16.75;;
69280;SDS011;56392;51.082;17.080;2023-10-19T09:25:52;34.88;;;16.67;;
69280;SDS011;56392;51.082;17.080;2023-10-19T09:31:17;34.27;;;17.00;;
69280;SDS011;56392;51.082;17.080;2023-10-19T09:36:42;33.55;;;16.58;;
69280;SDS011;56392;51.082;17.080;2023-10-19T09:42:06;34.83;;;16.75;;
69280;SDS011;56392;51.082;17.080;2023-10-19T09:47:34;36.97;;;18.13;;
69280;SDS011;56392;51.082;17.080;2023-10-19T09:53:01;42.30;;;18.87;;
69280;SDS011;56392;51.082;17.080;2023-10-19T09:58:26;39.88;;;19.13;;
69280;SDS011;56392;51.082;17.080;2023-10-19T10:03:54;38.15;;;18.30;;
69280;SDS011;56392;51.082;17.080;2023-10-19T10:09:21;42.60;;;18.87;;
69280;SDS011;56392;51.082;17.080;2023-10-19T10:14:56;37.58;;;19.25;;
69280;SDS011;56392;51.082;17.080;2023-10-19T10:20:30;40.28;;;20.27;;
69280;SDS011;56392;51.082;17.080;2023-10-19T10:25:55;39.30;;;19.13;;
69280;SDS011;56392;51.082;17.080;2023-10-19T10:31:20;41.75;;;19.42;;
69280;SDS011;56392;51.082;17.080;2023-10-19T10:37:00;38.40;;;19.02;;
69280;SDS011;56392;51.082;17.080;2023-10-19T10:42:25;40.27;;;20.27;;
69280;SDS011;56392;51.082;17.080;2023-10-19T10:47:48;42.63;;;19.83;;
69280;SDS011;56392;51.082;17.080;2023-10-19T10:53:13;37.72;;;18.52;;
69280;SDS011;56392;51.082;17.080;2023-10-19T10:58:37;39.95;;;19.13;;
69280;SDS011;56392;51.082;17.080;2023-10-19T11:04:05;35.20;;;18.90;;
69280;SDS011;56392;51.082;17.080;2023-10-19T11:09:44;39.50;;;19.70;;
69280;SDS011;56392;51.082;17.080;2023-10-19T11:15:09;43.95;;;21.65;;
69280;SDS011;56392;51.082;17.080;2023-10-19T11:20:32;49.63;;;23.80;;
69280;SDS011;56392;51.082;17.080;2023-10-19T11:25:59;45.58;;;22.77;;
69280;SDS011;56392;51.082;17.080;2023-10-19T11:31:24;47.97;;;22.83;;
69280;SDS011;56392;51.082;17.080;2023-10-19T11:36:51;36.77;;;17.90;;
69280;SDS011;56392;51.082;17.080;2023-10-19T11:42:19;39.87;;;19.97;;
69280;SDS011;56392;51.082;17.080;2023-10-19T11:47:42;42.17;;;21.08;;
69280;SDS011;56392;51.082;17.080;2023-10-19T11:53:06;43.22;;;21.30;;
69280;SDS011;56392;51.082;17.080;2023-10-19T11:58:33;44.97;;;22.63;;
69280;SDS011;56392;51.082;17.080;2023-10-19T12:03:57;43.30;;;21.55;;
69280;SDS011;56392;51.082;17.080;2023-10-19T12:09:21;38.63;;;18.58;;
69280;SDS011;56392;51.082;17.080;2023-10-19T12:14:48;38.73;;;20.20;;
69280;SDS011;56392;51.082;17.080;2023-10-19T12:20:11;42.17;;;21.60;;
69280;SDS011;56392;51.082;17.080;2023-10-19T12:25:35;41.55;;;20.83;;
69280;SDS011;56392;51.082;17.080;2023-10-19T12:31:01;45.33;;;22.47;;
69280;SDS011;56392;51.082;17.080;2023-10-19T12:36:24;44.93;;;22.27;;
69280;SDS011;56392;51.082;17.080;2023-10-19T12:41:53;40.75;;;19.83;;
69280;SDS011;56392;51.082;17.080;2023-10-19T12:47:21;40.97;;;19.45;;
69280;SDS011;56392;51.082;17.080;2023-10-19T12:52:45;40.73;;;19.53;;
69280;SDS011;56392;51.082;17.080;2023-10-19T12:58:10;40.72;;;20.25;;
69280;SDS011;56392;51.082;17.080;2023-10-19T13:03:37;42.40;;;19.90;;
69280;SDS011;56392;51.082;17.080;2023-10-19T13:09:03;42.73;;;20.17;;
69280;SDS011;56392;51.082;17.080;2023-10-19T13:14:30;40.63;;;18.95;;
69280;SDS011;56392;51.082;17.080;2023-10-19T13:19:57;37.70;;;19.10;;
69280;SDS011;56392;51.082;17.080;2023-10-19T13:25:22;45.17;;;20.47;;
69280;SDS011;56392;51.082;17.080;2023-10-19T13:31:00;39.40;;;19.47;;
69280;SDS011;56392;51.082;17.080;2023-10-19T13:36:30;38.95;;;19.77;;
69280;SDS011;56392;51.082;17.080;2023-10-19T13:41:53;45.00;;;21.50;;
69280;SDS011;56392;51.082;17.080;2023-10-19T13:47:16;40.23;;;21.00;;
69280;SDS011;56392;51.082;17.080;2023-10-19T13:52:40;48.50;;;21.25;;
69280;SDS011;56392;51.082;17.080;2023-10-19T13:58:04;46.38;;;22.10;;
69280;SDS011;56392;51.082;17.080;2023-10-19T14:03:28;41.63;;;19.50;;
69280;SDS011;56392;51.082;17.080;2023-10-19T14:08:53;44.75;;;21.45;;
69280;SDS011;56392;51.082;17.080;2023-10-19T14:14:17;43.20;;;19.67;;
69280;SDS011;56392;51.082;17.080;2023-10-19T14:19:40;42.30;;;21.20;;
69280;SDS011;56392;51.082;17.080;2023-10-19T14:25:08;48.73;;;22.10;;
69280;SDS011;56392;51.082;17.080;2023-10-19T14:30:33;47.80;;;22.85;;
69280;SDS011;56392;51.082;17.080;2023-10-19T14:35:57;47.35;;;21.73;;
69280;SDS011;56392;51.082;17.080;2023-10-19T14:41:22;41.57;;;20.80;;
69280;SDS011;56392;51.082;17.080;2023-10-19T14:46:45;44.80;;;20.33;;
69280;SDS011;56392;51.082;17.080;2023-10-19T14:52:09;44.10;;;20.63;;
69280;SDS011;56392;51.082;17.080;2023-10-19T14:57:34;44.00;;;20.27;;
69280;SDS011;56392;51.082;17.080;2023-10-19T15:03:00;41.83;;;20.25;;
69280;SDS011;56392;51.082;17.080;2023-10-19T15:08:28;46.60;;;21.77;;
69280;SDS011;56392;51.082;17.080;2023-10-19T15:13:54;43.70;;;21.15;;
69280;SDS011;56392;51.082;17.080;2023-10-19T15:19:19;40.97;;;21.23;;
69280;SDS011;56392;51.082;17.080;2023-10-19T15:24:42;43.63;;;20.65;;
69280;SDS011;56392;51.082;17.080;2023-10-19T15:30:08;46.85;;;21.38;;
69280;SDS011;56392;51.082;17.080;2023-10-19T15:35:32;46.73;;;20.23;;
69280;SDS011;56392;51.082;17.080;2023-10-19T15:40:57;50.08;;;21.83;;
69280;SDS011;56392;51.082;17.080;2023-10-19T15:46:22;50.30;;;21.98;;
69280;SDS011;56392;51.082;17.080;2023-10-19T15:51:46;45.07;;;21.67;;
69280;SDS011;56392;51.082;17.080;2023-10-19T15:57:10;55.95;;;25.70;;
69280;SDS011;56392;51.082;17.080;2023-10-19T16:02:34;56.13;;;24.35;;
69280;SDS011;56392;51.082;17.080;2023-10-19T16:07:58;56.97;;;24.57;;
69280;SDS011;56392;51.082;17.080;2023-10-19T16:13:21;50.20;;;23.57;;
69280;SDS011;56392;51.082;17.080;2023-10-19T16:18:48;49.58;;;23.38;;
69280;SDS011;56392;51.082;17.080;2023-10-19T16:24:11;56.75;;;23.02;;
69280;SDS011;56392;51.082;17.080;2023-10-19T16:29:35;69.47;;;24.40;;
69280;SDS011;56392;51.082;17.080;2023-10-19T16:35:00;65.63;;;25.48;;
69280;SDS011;56392;51.082;17.080;2023-10-19T16:40:25;58.92;;;24.58;;
69280;SDS011;56392;51.082;17.080;2023-10-19T16:45:50;53.20;;;24.37;;
69280;SDS011;56392;51.082;17.080;2023-10-19T16:51:16;59.35;;;24.60;;
69280;SDS011;56392;51.082;17.080;2023-10-19T16:56:40;60.58;;;24.48;;
69280;SDS011;56392;51.082;17.080;2023-10-19T17:02:07;64.67;;;24.57;;
69280;SDS011;56392;51.082;17.080;2023-10-19T17:07:32;66.47;;;23.80;;
69280;SDS011;56392;51.082;17.080;2023-10-19T17:12:55;66.18;;;23.98;;
69280;SDS011;56392;51.082;17.080;2023-10-19T17:18:20;63.35;;;23.63;;
69280;SDS011;56392;51.082;17.080;2023-10-19T17:23:45;68.13;;;25.30;;
69280;SDS011;56392;51.082;17.080;2023-10-19T17:29:08;60.63;;;24.88;;
69280;SDS011;56392;51.082;17.080;2023-10-19T17:34:31;80.30;;;27.83;;
69280;SDS011;56392;51.082;17.080;2023-10-19T17:39:58;79.13;;;27.77;;
69280;SDS011;56392;51.082;17.080;2023-10-19T17:45:21;74.72;;;26.90;;
69280;SDS011;56392;51.082;17.080;2023-10-19T17:50:44;83.20;;;27.75;;
69280;SDS011;56392;51.082;17.080;2023-10-19T17:56:08;74.17;;;28.03;;
69280;SDS011;56392;51.082;17.080;2023-10-19T18:01:32;85.87;;;29.13;;
69280;SDS011;56392;51.082;17.080;2023-10-19T18:06:57;92.30;;;28.83;;
69280;SDS011;56392;51.082;17.080;2023-10-19T18:12:23;81.95;;;28.35;;
69280;SDS011;56392;51.082;17.080;2023-10-19T18:17:46;82.57;;;28.27;;
69280;SDS011;56392;51.082;17.080;2023-10-19T18:23:09;97.93;;;28.55;;
69280;SDS011;56392;51.082;17.080;2023-10-19T18:28:34;90.80;;;27.88;;
69280;SDS011;56392;51.082;17.080;2023-10-19T18:33:58;94.27;;;30.67;;
69280;SDS011;56392;51.082;17.080;2023-10-19T18:39:28;87.20;;;29.08;;
69280;SDS011;56392;51.082;17.080;2023-10-19T18:44:52;108.38;;;31.40;;
69280;SDS011;56392;51.082;17.080;2023-10-19T18:50:17;107.40;;;31.80;;
69280;SDS011;56392;51.082;17.080;2023-10-19T18:55:41;103.67;;;30.47;;
69280;SDS011;56392;51.082;17.080;2023-10-19T19:01:16;108.32;;;30.55;;
69280;SDS011;56392;51.082;17.080;2023-10-19T19:06:40;121.88;;;32.15;;
69280;SDS011;56392;51.082;17.080;2023-10-19T19:12:04;96.83;;;30.03;;
69280;SDS011;56392;51.082;17.080;2023-10-19T19:17:31;115.60;;;31.05;;
69280;SDS011;56392;51.082;17.080;2023-10-19T19:22:54;127.63;;;30.85;;
69280;SDS011;56392;51.082;17.080;2023-10-19T19:28:18;135.50;;;31.27;;
69280;SDS011;56392;51.082;17.080;2023-10-19T19:33:43;102.25;;;30.17;;
69280;SDS011;56392;51.082;17.080;2023-10-19T19:39:07;130.65;;;31.88;;
69280;SDS011;56392;51.082;17.080;2023-10-19T19:44:30;125.70;;;30.67;;
69280;SDS011;56392;51.082;17.080;2023-10-19T19:49:54;131.73;;;31.67;;
69280;SDS011;56392;51.082;17.080;2023-10-19T19:55:17;139.82;;;32.17;;
69280;SDS011;56392;51.082;17.080;2023-10-19T20:00:40;140.70;;;34.33;;
69280;SDS011;56392;51.082;17.080;2023-10-19T20:06:05;136.43;;;33.37;;
69280;SDS011;56392;51.082;17.080;2023-10-19T20:11:32;160.55;;;34.58;;
69280;SDS011;56392;51.082;17.080;2023-10-19T20:16:55;142.25;;;31.45;;
69280;SDS011;56392;51.082;17.080;2023-10-19T20:22:20;153.40;;;32.13;;
69280;SDS011;56392;51.082;17.080;2023-10-19T20:27:43;135.20;;;31.65;;
69280;SDS011;56392;51.082;17.080;2023-10-19T20:33:08;147.65;;;30.88;;
69280;SDS011;56392;51.082;17.080;2023-10-19T20:38:34;136.87;;;32.63;;
69280;SDS011;56392;51.082;17.080;2023-10-19T20:43:58;129.80;;;31.43;;
69280;SDS011;56392;51.082;17.080;2023-10-19T20:49:21;157.38;;;32.33;;
69280;SDS011;56392;51.082;17.080;2023-10-19T20:54:45;107.35;;;30.80;;
69280;SDS011;56392;51.082;17.080;2023-10-19T21:00:08;133.13;;;31.60;;
69280;SDS011;56392;51.082;17.080;2023-10-19T21:05:34;114.10;;;31.83;;
69280;SDS011;56392;51.082;17.080;2023-10-19T21:11:00;97.80;;;31.50;;
69280;SDS011;56392;51.082;17.080;2023-10-19T21:16:23;160.50;;;33.27;;
69280;SDS011;56392;51.082;17.080;2023-10-19T21:21:46;172.00;;;34.17;;
69280;SDS011;56392;51.082;17.080;2023-10-19T21:27:13;132.32;;;31.55;;
69280;SDS011;56392;51.082;17.080;2023-10-19T21:32:36;144.87;;;31.67;;
69280;SDS011;56392;51.082;17.080;2023-10-19T21:38:02;123.20;;;30.30;;
69280;SDS011;56392;51.082;17.080;2023-10-19T21:43:26;123.40;;;31.35;;
69280;SDS011;56392;51.082;17.080;2023-10-19T21:48:49;103.28;;;30.73;;
69280;SDS011;56392;51.082;17.080;2023-10-19T21:54:13;134.37;;;29.47;;
69280;SDS011;56392;51.082;17.080;2023-10-19T21:59:38;130.30;;;31.42;;
69280;SDS011;56392;51.082;17.080;2023-10-19T22:05:01;86.63;;;29.05;;
69280;SDS011;56392;51.082;17.080;2023-10-19T22:10:24;117.67;;;31.27;;
69280;SDS011;56392;51.082;17.080;2023-10-19T22:15:49;125.55;;;30.60;;
69280;SDS011;56392;51.082;17.080;2023-10-19T22:21:12;106.15;;;30.23;;
69280;SDS011;56392;51.082;17.080;2023-10-19T22:26:35;122.60;;;31.47;;
69280;SDS011;56392;51.082;17.080;2023-10-19T22:32:02;118.23;;;30.20;;
69280;SDS011;56392;51.082;17.080;2023-10-19T22:37:25;137.73;;;31.95;;
69280;SDS011;56392;51.082;17.080;2023-10-19T22:42:48;102.40;;;29.63;;
69280;SDS011;56392;51.082;17.080;2023-10-19T22:48:13;125.97;;;29.97;;
69280;SDS011;56392;51.082;17.080;2023-10-19T22:53:36;117.63;;;29.73;;
69280;SDS011;56392;51.082;17.080;2023-10-19T22:59:02;118.95;;;30.15;;
69280;SDS011;56392;51.082;17.080;2023-10-19T23:04:27;144.30;;;30.77;;
69280;SDS011;56392;51.082;17.080;2023-10-19T23:09:50;116.82;;;31.02;;
69280;SDS011;56392;51.082;17.080;2023-10-19T23:15:15;101.28;;;28.10;;
69280;SDS011;56392;51.082;17.080;2023-10-19T23:20:43;101.63;;;29.10;;
69280;SDS011;56392;51.082;17.080;2023-10-19T23:26:13;96.47;;;28.33;;
69280;SDS011;56392;51.082;17.080;2023-10-19T23:31:42;110.60;;;29.13;;
69280;SDS011;56392;51.082;17.080;2023-10-19T23:37:07;99.40;;;29.23;;
69280;SDS011;56392;51.082;17.080;2023-10-19T23:42:32;109.27;;;29.40;;
69280;SDS011;56392;51.082;17.080;2023-10-19T23:47:55;106.95;;;31.02;;
69280;SDS011;56392;51.082;17.080;2023-10-19T23:53:19;98.00;;;28.27;;
69280;SDS011;56392;51.082;17.080;2023-10-19T23:58:43;100.17;;;30.10;;
